Tioga Center, NY (13845)

6:34 AM EST on December 09, 2016 (GMT -0500)
Tioga Central | | Change Station

Elev 817 ft 42.06 °N, 76.35 °W | Updated 43 seconds ago

Mostly Cloudy
Mostly Cloudy
26.1 °F
Feels Like 19 °F
N
6.3
Wind Variable Wind from West
Gusts 6.3 mph

Today
High -- | Low -- °F
--% Chance of Precip.
Yesterday
High -- | Low -- °F
Precip. -- in
Pressure 30.00 in
Visibility 1.0 miles
Clouds Few 800 ft
Overcast 1400 ft
Windchill 19 °F
Dew Point 17 °F
Humidity 69%
Rainfall 0.00 in
Snow Depth Not available.
7:22 AM 4:33 PM
Waxing Gibbous, 73% visible
SPECI KBGM 091128Z 30010KT 1SM -SN BR FEW008 OVC014 M05/M06 A3000 RMK AO2 P0001 T10501061
Pressure 30.00 in
Visibility 1.0 miles
Clouds Few 800 ft
Overcast 1400 ft
Windchill 19 °F
Dew Point 17 °F
Humidity 69%
Rainfall 0.00 in
Snow Depth Not available.
7:22 AM 4:33 PM
Waxing Gibbous, 73% visible
SPECI KBGM 091128Z 30010KT 1SM -SN BR FEW008 OVC014 M05/M06 A3000 RMK AO2 P0001 T10501061

10-Day Weather Forecast

Almanac

Astronomy

Dec. 09, 2016 Rise Set
Actual Time
Civil Twilight
Nautical Twilight
Astronomical Twilight
Moon
Length of Visible Light
Length of Day
Tomorrow will be .
, % of the Moon is Illuminated

Today's Extremes

State Highs State Lows

Community

WunderPhotos

Upload Photos

1,956,378 photos uploaded!

WunderBlog® & News

Nearby

Air Quality

  Air Quality AQ Index Pollutant
Not available.

Snow Depth

Station Depth Elevation

Earthquake Activity

City Distance Mag. Time & Date
Minimum magnitude displayed is 2.5.

Coastal Water Temperatures

Place Temperature

Stations

Nearby Weather Stations

Station Location Temp. Windchill Dew Point Humidity Wind Precip. Elev Updated Type
                   

Watches & Warnings

There are currently no watches in effect.